Time;durP1;ratioP1;P1;durP2;ratioP2;P2;SDS_P1;SDS_P2;PMS_P1;PMS_P2;Temp;Humidity;BMP_temperature;BMP_pressure;BME280_temperature;BME280_humidity;BME280_pressure;Samples;Min_cycle;Max_cycle;Signal;HPM_P1;HPM_P2
2024/01/30 07:42:05;;;;;;;26.40;13.33;;;;;;;4.72;77.53;102013.78;4870525;29;20217;-71
2024/01/30 07:44:35;;;;;;;22.90;12.97;;;;;;;4.76;77.49;102020.59;4860488;29;20217;-71
2024/01/30 07:47:06;;;;;;;26.73;13.10;;;;;;;4.80;77.37;102021.31;4881378;29;20223;-71
2024/01/30 07:49:35;;;;;;;23.63;13.50;;;;;;;4.84;77.38;102018.44;4901324;29;20240;-72
2024/01/30 07:52:07;;;;;;;21.83;13.20;;;;;;;4.88;77.45;102020.00;4896063;29;20257;-72
2024/01/30 07:54:43;;;;;;;26.13;14.33;;;;;;;5.02;77.02;102018.47;4901823;29;20319;-71
2024/01/30 07:57:13;;;;;;;23.70;13.60;;;;;;;5.07;76.62;102019.13;4900877;29;20240;-71
2024/01/30 07:59:46;;;;;;;25.13;13.37;;;;;;;5.10;76.74;102026.88;4899804;29;20688;-71
2024/01/30 08:02:15;;;;;;;22.33;13.27;;;;;;;5.15;76.67;102032.75;4901011;29;20205;-71
2024/01/30 08:04:49;;;;;;;25.27;13.73;;;;;;;5.22;76.68;102032.34;4903473;29;20686;-72
2024/01/30 08:07:18;;;;;;;21.17;12.80;;;;;;;5.29;76.37;102033.75;4903283;29;20232;-72
2024/01/30 08:09:46;;;;;;;23.13;13.10;;;;;;;5.38;76.30;102040.34;4903125;29;20727;-72
2024/01/30 08:12:18;;;;;;;21.67;12.47;;;;;;;5.47;75.93;102039.03;4899178;29;21132;-71
2024/01/30 08:14:46;;;;;;;22.77;12.40;;;;;;;5.53;75.91;102036.94;4901272;29;20220;-71
2024/01/30 08:17:15;;;;;;;21.87;12.87;;;;;;;5.57;75.67;102035.84;4900968;29;20214;-71
2024/01/30 08:19:43;;;;;;;22.57;12.43;;;;;;;5.59;75.53;102041.91;4899943;29;20944;-71
2024/01/30 08:22:11;;;;;;;22.20;12.53;;;;;;;5.64;75.60;102041.66;4903704;29;20210;-72
2024/01/30 08:24:40;;;;;;;19.23;11.57;;;;;;;5.73;75.32;102041.19;4902816;29;20301;-71
2024/01/30 08:27:09;;;;;;;26.37;13.67;;;;;;;5.82;74.85;102031.94;4899427;29;20213;-72
2024/01/30 08:29:39;;;;;;;22.63;12.80;;;;;;;5.88;74.24;102029.06;4901490;29;20617;-71
2024/01/30 08:32:08;;;;;;;24.83;14.50;;;;;;;5.82;74.23;102026.69;4901554;29;20248;-71
2024/01/30 08:34:37;;;;;;;26.00;13.60;;;;;;;5.82;74.42;102019.63;4901053;29;20229;-71
2024/01/30 08:37:05;;;;;;;29.70;15.43;;;;;;;5.75;74.33;102035.84;4901748;29;20213;-72
2024/01/30 08:39:33;;;;;;;23.80;15.33;;;;;;;5.70;74.81;102035.25;4903519;29;20361;-72
2024/01/30 08:42:01;;;;;;;25.17;14.50;;;;;;;5.55;75.22;102019.28;4902761;29;20269;-72
2024/01/30 08:44:30;;;;;;;26.13;13.67;;;;;;;5.38;76.10;102021.91;4902751;29;20221;-72
2024/01/30 08:46:59;;;;;;;27.27;15.10;;;;;;;5.29;76.80;102023.22;4898760;29;20689;-72
2024/01/30 08:49:27;;;;;;;27.77;14.60;;;;;;;5.36;76.85;102031.69;4901297;29;20224;-72
2024/01/30 08:51:56;;;;;;;25.80;14.23;;;;;;;5.43;77.19;102033.09;4901259;29;20288;-72
2024/01/30 08:54:25;;;;;;;22.80;13.80;;;;;;;5.53;76.42;102038.72;4901285;29;20216;-71
2024/01/30 08:56:56;;;;;;;24.63;12.00;;;;;;;5.62;76.36;102039.13;4899139;29;20215;-72
2024/01/30 08:59:24;;;;;;;28.83;14.83;;;;;;;5.65;76.27;102040.72;4900038;29;20217;-71
2024/01/30 09:01:55;;;;;;;23.43;12.87;;;;;;;5.61;76.42;102041.81;4900599;29;20204;-71
2024/01/30 09:04:39;;;;;;;27.13;14.17;;;;;;;5.59;76.68;102034.00;4900834;29;20205;-71
2024/01/30 09:07:10;;;;;;;22.60;14.23;;;;;;;5.66;76.46;102034.53;4901069;29;20214;-73
2024/01/30 09:09:40;;;;;;;22.37;12.67;;;;;;;5.70;76.36;102032.59;4904860;29;20214;-70
2024/01/30 09:12:11;;;;;;;24.50;13.33;;;;;;;5.80;76.02;102026.78;4905956;29;20241;-72
2024/01/30 09:14:41;;;;;;;24.57;13.20;;;;;;;5.95;75.38;102036.53;4888612;29;20264;-72
2024/01/30 09:17:10;;;;;;;22.03;13.43;;;;;;;6.12;74.89;102038.28;4900339;29;20217;-72
2024/01/30 09:19:41;;;;;;;25.87;14.23;;;;;;;6.36;73.92;102041.38;4900258;29;21064;-73
2024/01/30 09:22:09;;;;;;;23.57;13.90;;;;;;;6.59;73.50;102037.50;4901400;29;20240;-72
2024/01/30 09:24:37;;;;;;;23.80;13.00;;;;;;;6.83;72.67;102036.13;4902131;29;20213;-70
2024/01/30 09:27:06;;;;;;;22.37;13.07;;;;;;;7.05;71.62;102039.25;4900534;29;20215;-71
2024/01/30 09:29:36;;;;;;;21.73;13.57;;;;;;;7.10;71.04;102044.28;4899648;29;20205;-72
2024/01/30 09:32:08;;;;;;;25.87;13.30;;;;;;;7.07;71.06;102040.03;4897374;29;20321;-72
2024/01/30 09:34:39;;;;;;;22.20;13.17;;;;;;;7.14;70.89;102035.22;4899646;29;20226;-72
2024/01/30 09:37:09;;;;;;;23.77;14.30;;;;;;;7.63;70.17;102041.16;4897950;29;20220;-72
2024/01/30 09:39:37;;;;;;;23.13;12.93;;;;;;;9.03;66.19;102050.91;4902216;29;20317;-72
2024/01/30 09:42:15;;;;;;;23.50;13.17;;;;;;;9.63;62.39;102051.28;4901367;29;20210;-74
2024/01/30 09:44:46;;;;;;;20.87;13.03;;;;;;;9.78;60.91;102050.22;4899929;29;20229;-73
2024/01/30 09:47:16;;;;;;;20.13;13.17;;;;;;;9.90;60.61;102040.59;4899890;29;20219;-71
2024/01/30 09:49:45;;;;;;;28.53;13.33;;;;;;;10.08;60.50;102039.34;4898906;29;20227;-71
2024/01/30 09:52:15;;;;;;;24.00;14.07;;;;;;;10.14;59.66;102046.84;4903450;29;20277;-71
2024/01/30 09:54:45;;;;;;;23.20;14.47;;;;;;;10.11;59.47;102044.41;4901697;29;20592;-72
2024/01/30 09:57:14;;;;;;;23.93;14.87;;;;;;;10.17;59.17;102045.78;4903000;29;20299;-71
2024/01/30 09:59:44;;;;;;;22.13;14.43;;;;;;;10.38;58.88;102054.09;4902618;29;20217;-71
2024/01/30 10:02:12;;;;;;;24.43;14.40;;;;;;;10.46;58.48;102051.75;4898860;29;20315;-66
2024/01/30 10:04:40;;;;;;;20.87;12.73;;;;;;;10.53;58.34;102051.19;4902463;29;20215;-67
2024/01/30 10:07:11;;;;;;;21.73;13.90;;;;;;;10.41;58.09;102048.53;4903648;29;20213;-66
2024/01/30 10:09:40;;;;;;;23.03;13.03;;;;;;;10.28;58.85;102047.72;4906485;29;20758;-67
2024/01/30 10:12:10;;;;;;;25.70;15.57;;;;;;;10.06;59.47;102048.34;4905730;29;20221;-67
2024/01/30 10:14:39;;;;;;;27.57;15.83;;;;;;;9.87;60.33;102048.75;4905128;29;20345;-67
2024/01/30 10:17:09;;;;;;;25.13;15.73;;;;;;;9.67;61.13;102049.28;4909365;29;20214;-67
2024/01/30 10:19:48;;;;;;;26.43;14.90;;;;;;;9.39;61.88;102056.44;4906732;29;20240;-66
2024/01/30 10:22:17;;;;;;;25.47;14.37;;;;;;;9.13;62.78;102052.00;4907559;29;20347;-66
2024/01/30 10:24:46;;;;;;;25.43;15.23;;;;;;;8.92;63.50;102053.41;4909526;29;20217;-68
2024/01/30 10:27:15;;;;;;;22.67;14.37;;;;;;;8.84;64.10;102042.47;4908831;29;20306;-66
2024/01/30 10:29:43;;;;;;;22.77;13.60;;;;;;;8.98;63.99;102045.91;4909906;29;20651;-67
2024/01/30 10:32:11;;;;;;;24.30;13.80;;;;;;;9.25;63.21;102045.88;4908100;29;20248;-67
2024/01/30 10:34:38;;;;;;;21.03;13.97;;;;;;;9.68;62.59;102043.00;4906281;29;20241;-66
2024/01/30 10:37:12;;;;;;;19.23;13.23;;;;;;;10.52;60.70;102038.03;4904217;29;20261;-67
2024/01/30 10:39:41;;;;;;;22.30;13.90;;;;;;;10.92;58.71;102033.31;4907472;29;20213;-67
2024/01/30 10:42:13;;;;;;;22.37;14.00;;;;;;;10.59;58.75;102030.47;4904053;29;20220;-68
2024/01/30 10:44:49;;;;;;;22.03;13.80;;;;;;;10.32;59.47;102033.28;4903860;29;20301;-67
2024/01/30 10:47:23;;;;;;;21.77;14.47;;;;;;;10.40;59.44;102030.94;4906151;29;20273;-68
2024/01/30 10:49:53;;;;;;;22.87;15.10;;;;;;;11.04;58.57;102037.75;4907218;29;20281;-67
2024/01/30 10:52:22;;;;;;;22.70;14.37;;;;;;;11.97;57.03;102036.84;4905903;29;21007;-68
2024/01/30 10:54:51;;;;;;;22.57;14.40;;;;;;;12.10;55.49;102034.09;4906061;29;20233;-67
2024/01/30 10:57:23;;;;;;;19.93;13.93;;;;;;;11.99;55.39;102036.72;4908678;29;21136;-67
2024/01/30 10:59:53;;;;;;;20.23;13.60;;;;;;;11.93;55.48;102039.88;4903730;29;20209;-66
2024/01/30 11:02:23;;;;;;;21.60;13.00;;;;;;;11.72;55.57;102042.31;4903938;29;20235;-68
2024/01/30 11:04:56;;;;;;;18.73;13.47;;;;;;;11.37;56.22;102047.66;4904058;29;20224;-67
2024/01/30 11:07:29;;;;;;;18.70;12.77;;;;;;;11.17;56.91;102037.69;4903086;29;20213;-69
2024/01/30 11:10:03;;;;;;;23.47;14.93;;;;;;;11.12;57.57;102038.03;4902231;29;20208;-66
2024/01/30 11:12:34;;;;;;;24.07;14.13;;;;;;;11.20;57.75;102040.09;4902142;29;20227;-70
2024/01/30 11:15:05;;;;;;;22.60;14.33;;;;;;;11.31;57.73;102034.84;4904720;29;20244;-68
2024/01/30 11:17:43;;;;;;;21.67;13.63;;;;;;;11.31;57.09;102050.78;4905205;29;20757;-66
2024/01/30 11:20:14;;;;;;;18.10;13.10;;;;;;;11.14;57.81;102038.75;4902010;29;20770;-67
2024/01/30 11:22:44;;;;;;;18.70;12.80;;;;;;;10.91;58.29;102037.78;4904071;29;20209;-67
2024/01/30 11:25:14;;;;;;;20.37;13.37;;;;;;;10.55;59.28;102040.47;4904935;29;20244;-66
2024/01/30 11:27:44;;;;;;;19.90;13.63;;;;;;;10.25;60.38;102039.97;4905219;29;20240;-66
2024/01/30 11:30:22;;;;;;;23.43;13.50;;;;;;;9.91;61.84;102034.34;4902753;29;20212;-68
2024/01/30 11:33:01;;;;;;;26.50;16.37;;;;;;;9.61;63.23;102032.00;4904869;29;21040;-66
2024/01/30 11:35:32;;;;;;;23.23;14.00;;;;;;;9.37;64.56;102029.22;4905451;29;20665;-67
2024/01/30 11:38:01;;;;;;;28.83;17.03;;;;;;;9.24;65.48;102017.72;4905078;29;20224;-67
2024/01/30 11:40:30;;;;;;;26.30;14.47;;;;;;;9.15;66.09;102010.38;4904937;29;20224;-66
2024/01/30 11:43:02;;;;;;;23.30;14.80;;;;;;;9.14;66.46;102002.56;4905241;29;20216;-67
2024/01/30 11:45:31;;;;;;;21.53;15.03;;;;;;;9.07;67.25;101995.03;4906658;29;20209;-66
2024/01/30 11:48:03;;;;;;;26.90;14.63;;;;;;;9.05;67.49;101998.75;4904019;29;20618;-66
2024/01/30 11:50:32;;;;;;;21.57;13.60;;;;;;;9.18;67.42;101996.97;4902213;29;20216;-68
2024/01/30 11:53:00;;;;;;;23.10;13.70;;;;;;;9.29;67.44;101985.66;4902672;29;20216;-68
2024/01/30 11:55:30;;;;;;;19.83;12.97;;;;;;;9.34;67.32;101987.03;4900545;29;21903;-68
2024/01/30 11:58:04;;;;;;;20.47;13.57;;;;;;;9.52;66.71;101979.66;4903243;29;20216;-66
2024/01/30 12:00:33;;;;;;;22.87;13.87;;;;;;;9.50;66.73;101980.72;4905480;29;20227;-66
2024/01/30 12:03:03;;;;;;;25.17;14.60;;;;;;;9.50;66.82;101976.25;4905381;29;20221;-66
2024/01/30 12:05:32;;;;;;;23.10;14.53;;;;;;;9.58;66.71;101975.75;4901578;29;20272;-67
2024/01/30 12:08:01;;;;;;;21.33;13.47;;;;;;;9.69;66.22;101984.63;4905416;29;20212;-67
2024/01/30 12:10:30;;;;;;;22.87;12.90;;;;;;;9.79;66.22;101990.16;4899974;29;20236;-65
2024/01/30 12:13:05;;;;;;;19.50;12.43;;;;;;;9.91;65.92;101981.34;4899665;29;20206;-70
2024/01/30 12:15:33;;;;;;;18.70;13.27;;;;;;;10.01;65.84;101982.41;4900169;29;21208;-68
2024/01/30 12:18:09;;;;;;;20.60;12.83;;;;;;;10.01;65.58;101986.88;4900650;29;20293;-66
2024/01/30 12:20:37;;;;;;;20.43;12.83;;;;;;;10.00;66.04;101991.31;4901203;29;20226;-69
2024/01/30 12:23:06;;;;;;;18.13;12.57;;;;;;;9.96;66.04;101988.97;4902284;29;20209;-65
2024/01/30 12:25:34;;;;;;;20.73;13.23;;;;;;;9.94;65.91;101985.59;4903629;29;20218;-69
2024/01/30 12:28:05;;;;;;;18.57;12.03;;;;;;;10.05;66.02;101988.31;4902153;29;20311;-66
2024/01/30 12:30:35;;;;;;;20.73;13.23;;;;;;;10.35;64.73;101980.91;4903053;29;20302;-65
2024/01/30 12:33:05;;;;;;;21.17;13.00;;;;;;;10.43;64.59;101981.19;4904044;29;20265;-66
2024/01/30 12:35:33;;;;;;;21.73;13.53;;;;;;;10.42;64.35;101987.44;4903285;29;20238;-66
2024/01/30 12:38:01;;;;;;;22.23;12.03;;;;;;;10.45;64.46;101986.38;4904912;29;20242;-65
2024/01/30 12:40:29;;;;;;;17.07;11.87;;;;;;;10.46;64.40;101978.31;4898930;29;20222;-69
2024/01/30 12:42:58;;;;;;;19.80;12.37;;;;;;;10.51;64.24;101970.88;4901613;29;20385;-67
2024/01/30 12:45:28;;;;;;;18.20;12.70;;;;;;;10.61;63.97;101979.00;4899018;29;20214;-66
2024/01/30 12:47:56;;;;;;;19.80;13.20;;;;;;;11.06;63.33;101972.13;4900716;29;20218;-67
2024/01/30 12:50:24;;;;;;;17.43;12.40;;;;;;;11.57;61.49;101971.75;4901939;29;20211;-67
2024/01/30 12:52:52;;;;;;;23.93;14.00;;;;;;;11.50;61.14;101971.41;4903639;29;20212;-67
2024/01/30 12:55:21;;;;;;;21.23;14.10;;;;;;;11.40;61.29;101975.72;4904826;29;21009;-68
2024/01/30 12:57:51;;;;;;;18.40;12.53;;;;;;;11.25;61.98;101975.09;4902422;29;20283;-67
2024/01/30 13:00:20;;;;;;;22.53;13.20;;;;;;;11.34;62.33;101976.19;4899464;29;20221;-66
2024/01/30 13:02:50;;;;;;;19.37;12.13;;;;;;;11.36;61.89;101978.72;4899362;29;20225;-65
2024/01/30 13:05:18;;;;;;;20.43;13.43;;;;;;;11.28;62.46;101976.63;4900827;29;20221;-65
2024/01/30 13:07:46;;;;;;;17.33;12.97;;;;;;;11.23;62.87;101971.69;4898606;29;20209;-66
2024/01/30 13:10:14;;;;;;;21.50;13.93;;;;;;;11.18;62.98;101972.97;4897781;29;20209;-68
2024/01/30 13:12:42;;;;;;;21.47;13.07;;;;;;;11.19;63.17;101962.25;4899999;29;20216;-65
2024/01/30 13:15:11;;;;;;;19.87;12.60;;;;;;;11.19;63.08;101961.41;4901451;29;20260;-67
2024/01/30 13:17:39;;;;;;;21.87;13.50;;;;;;;11.07;63.68;101967.66;4900449;29;20243;-65
2024/01/30 13:20:10;;;;;;;22.57;13.73;;;;;;;10.87;64.58;101956.72;4900882;29;20213;-66
2024/01/30 13:22:39;;;;;;;23.57;14.07;;;;;;;10.80;65.17;101960.78;4901421;29;20212;-67
2024/01/30 13:25:08;;;;;;;21.93;13.73;;;;;;;10.69;66.14;101958.06;4899219;29;20225;-66
2024/01/30 13:27:37;;;;;;;22.57;14.30;;;;;;;10.72;65.98;101951.69;4901989;29;20215;-66
2024/01/30 13:30:07;;;;;;;31.87;14.60;;;;;;;10.66;67.01;101944.16;4900479;29;20280;-67
2024/01/30 13:32:36;;;;;;;21.47;13.97;;;;;;;10.63;67.12;101945.25;4900234;29;20951;-67
2024/01/30 13:35:04;;;;;;;22.23;13.80;;;;;;;10.61;67.30;101943.66;4899529;29;20246;-65
2024/01/30 13:37:34;;;;;;;20.73;13.63;;;;;;;10.52;67.78;101945.19;4897776;29;20576;-66
2024/01/30 13:40:03;;;;;;;19.80;12.23;;;;;;;10.51;68.12;101948.81;4899094;29;20272;-66
2024/01/30 13:42:35;;;;;;;22.87;13.13;;;;;;;10.45;68.53;101943.94;4903121;29;20235;-68
2024/01/30 13:45:03;;;;;;;20.43;14.40;;;;;;;10.35;68.72;101937.63;4901277;29;20217;-67
2024/01/30 13:47:31;;;;;;;22.37;14.43;;;;;;;10.34;68.97;101927.97;4904436;29;20213;-66
2024/01/30 13:50:00;;;;;;;24.07;13.87;;;;;;;10.34;68.82;101933.25;4903595;29;20220;-67
2024/01/30 13:52:28;;;;;;;19.80;12.87;;;;;;;10.28;69.07;101934.56;4903517;29;20700;-69
2024/01/30 13:55:06;;;;;;;21.23;12.73;;;;;;;10.32;69.12;101935.19;4901831;29;20260;-65
2024/01/30 13:57:35;;;;;;;23.20;12.43;;;;;;;10.34;68.80;101933.25;4904384;29;20214;-67
2024/01/30 14:00:06;;;;;;;26.13;13.33;;;;;;;10.38;68.92;101924.16;4903854;29;20217;-67
2024/01/30 14:02:34;;;;;;;19.50;12.20;;;;;;;10.41;68.95;101923.91;4902753;29;20255;-66
2024/01/30 14:05:04;;;;;;;22.70;12.57;;;;;;;10.38;68.97;101921.50;4902037;29;20209;-66
2024/01/30 14:07:33;;;;;;;16.93;11.80;;;;;;;10.38;68.99;101926.81;4901070;29;20218;-66
2024/01/30 14:10:01;;;;;;;23.97;13.63;;;;;;;10.39;68.93;101929.31;4902845;29;20241;-68
2024/01/30 14:12:33;;;;;;;18.67;12.67;;;;;;;10.45;68.88;101928.88;4902339;29;20209;-67
2024/01/30 14:15:01;;;;;;;19.20;11.90;;;;;;;10.50;68.51;101936.50;4900968;29;20248;-67
2024/01/30 14:17:39;;;;;;;19.63;11.50;;;;;;;10.52;68.11;101937.22;4902247;29;20247;-66
2024/01/30 14:20:09;;;;;;;19.13;11.17;;;;;;;10.53;67.78;101938.94;4901745;29;20224;-66
2024/01/30 14:22:37;;;;;;;16.13;10.07;;;;;;;10.55;67.52;101940.50;4901917;29;20219;-66
2024/01/30 14:25:06;;;;;;;21.63;10.87;;;;;;;10.55;67.79;101939.69;4901137;29;20215;-67
2024/01/30 14:27:35;;;;;;;17.00;9.70;;;;;;;10.58;67.34;101960.66;4902101;29;20224;-66
2024/01/30 14:30:05;;;;;;;17.60;9.80;;;;;;;10.60;66.76;101956.09;4902684;29;20282;-67
2024/01/30 14:32:33;;;;;;;16.43;10.80;;;;;;;10.63;66.73;101947.91;4900797;29;20262;-67
2024/01/30 14:35:01;;;;;;;18.87;11.43;;;;;;;10.64;67.11;101956.72;4897517;29;20595;-66
2024/01/30 14:37:30;;;;;;;19.87;10.57;;;;;;;10.63;66.83;101970.94;4901475;29;20249;-67
2024/01/30 14:39:58;;;;;;;19.43;10.63;;;;;;;10.63;66.81;101971.78;4903313;29;20577;-68
2024/01/30 14:42:27;;;;;;;16.83;10.67;;;;;;;10.68;66.65;101974.09;4904962;29;20408;-67
2024/01/30 14:44:58;;;;;;;18.10;10.43;;;;;;;10.69;66.44;101973.97;4905948;29;20216;-66
2024/01/30 14:47:27;;;;;;;20.53;10.83;;;;;;;10.68;66.18;101961.69;4904657;29;20215;-66
2024/01/30 14:49:55;;;;;;;18.40;11.80;;;;;;;10.69;67.06;101955.41;4902089;29;20216;-69
2024/01/30 14:52:23;;;;;;;17.50;10.77;;;;;;;10.63;67.67;101955.03;4897991;29;20286;-68
2024/01/30 14:54:51;;;;;;;18.17;10.90;;;;;;;10.59;68.65;101946.44;4900769;29;20251;-67
2024/01/30 14:57:20;;;;;;;22.67;11.17;;;;;;;10.53;69.29;101957.50;4902838;29;20215;-68
2024/01/30 14:59:49;;;;;;;16.43;10.30;;;;;;;10.52;69.86;101950.50;4902016;29;20311;-66
2024/01/30 15:02:18;;;;;;;22.20;11.43;;;;;;;10.48;70.43;101954.31;4901741;29;20818;-66
2024/01/30 15:04:46;;;;;;;15.87;10.33;;;;;;;10.48;70.51;101954.31;4901272;29;20693;-67
2024/01/30 15:07:15;;;;;;;20.50;10.90;;;;;;;10.46;70.47;101954.47;4903684;29;20216;-68
2024/01/30 15:09:59;;;;;;;16.10;10.03;;;;;;;10.47;70.44;101947.31;4887631;29;20234;-67
2024/01/30 15:12:27;;;;;;;14.83;9.27;;;;;;;10.48;70.92;101956.97;4901320;29;20262;-66
2024/01/30 15:14:56;;;;;;;13.87;8.33;;;;;;;10.46;71.48;101964.22;4899001;29;20226;-68
2024/01/30 15:17:25;;;;;;;17.60;9.53;;;;;;;10.45;71.53;101959.88;4903705;29;20274;-68
2024/01/30 15:19:53;;;;;;;17.70;9.13;;;;;;;10.44;71.44;101968.78;4899963;29;20237;-68
2024/01/30 15:22:22;;;;;;;16.10;9.17;;;;;;;10.46;71.41;101967.72;4898350;29;20228;-68
2024/01/30 15:24:50;;;;;;;16.20;9.77;;;;;;;10.47;71.25;101977.34;4897284;29;20213;-67
2024/01/30 15:27:19;;;;;;;18.47;10.10;;;;;;;10.46;71.24;101975.66;4901838;29;21170;-66
2024/01/30 15:29:47;;;;;;;19.77;10.23;;;;;;;10.45;71.24;101976.63;4905174;29;20207;-66
2024/01/30 15:32:18;;;;;;;17.27;10.10;;;;;;;10.44;71.50;101971.44;4904176;29;20235;-64
2024/01/30 15:34:47;;;;;;;19.03;10.53;;;;;;;10.43;71.34;101970.56;4903419;29;20748;-68
2024/01/30 15:37:15;;;;;;;14.40;10.13;;;;;;;10.43;71.44;101969.72;4908031;29;20237;-68
2024/01/30 15:39:44;;;;;;;15.20;9.80;;;;;;;10.42;71.19;101976.84;4904204;29;20218;-65
2024/01/30 15:42:12;;;;;;;14.77;10.17;;;;;;;10.43;71.47;101972.38;4903594;29;20248;-66
2024/01/30 15:44:40;;;;;;;18.67;10.20;;;;;;;10.42;71.30;101976.00;4902724;29;20638;-65
2024/01/30 15:47:08;;;;;;;15.77;9.37;;;;;;;10.42;71.63;101981.28;4902115;29;20215;-67
2024/01/30 15:49:36;;;;;;;16.73;10.70;;;;;;;10.40;72.02;101983.19;4902753;29;20248;-66
2024/01/30 15:52:12;;;;;;;17.67;9.77;;;;;;;10.39;72.00;101981.50;4901657;29;20210;-66
2024/01/30 15:54:40;;;;;;;17.80;10.43;;;;;;;10.39;71.93;101981.50;4903679;29;20615;-66
2024/01/30 15:57:08;;;;;;;18.30;9.90;;;;;;;10.40;71.95;101991.16;4903735;29;20238;-67
2024/01/30 15:59:37;;;;;;;17.40;9.93;;;;;;;10.43;71.86;101996.25;4884507;29;20214;-67
2024/01/30 16:02:06;;;;;;;16.67;10.63;;;;;;;10.43;71.71;101989.13;4902031;29;20210;-69
2024/01/30 16:04:34;;;;;;;17.03;10.40;;;;;;;10.42;72.26;101991.91;4902342;29;20215;-67
2024/01/30 16:07:03;;;;;;;19.90;9.83;;;;;;;10.45;72.04;101997.00;4902311;29;20218;-68
2024/01/30 16:09:33;;;;;;;15.70;9.57;;;;;;;10.43;72.54;101996.25;4903255;29;20232;-66
2024/01/30 16:12:01;;;;;;;15.33;8.90;;;;;;;10.45;72.41;101997.00;4902735;29;20216;-68
2024/01/30 16:14:30;;;;;;;18.87;8.50;;;;;;;10.43;73.03;102006.84;4899547;29;20214;-67
2024/01/30 16:16:58;;;;;;;15.33;8.77;;;;;;;10.43;73.32;102006.84;4900556;29;20891;-67
2024/01/30 16:19:26;;;;;;;14.83;8.50;;;;;;;10.40;73.98;102013.22;4901185;29;20655;-66
2024/01/30 16:21:54;;;;;;;16.63;9.23;;;;;;;10.36;74.90;102010.91;4902333;29;20216;-66
2024/01/30 16:24:22;;;;;;;14.43;7.67;;;;;;;10.32;75.66;102014.72;4901972;29;20277;-66
2024/01/30 16:26:52;;;;;;;16.07;9.07;;;;;;;10.28;76.35;102006.16;4902266;29;20216;-67
2024/01/30 16:29:20;;;;;;;13.37;7.93;;;;;;;10.23;77.11;102005.63;4899703;29;20221;-67
2024/01/30 16:31:48;;;;;;;17.63;8.70;;;;;;;10.20;77.95;102007.66;4901048;29;20215;-66
2024/01/30 16:34:17;;;;;;;14.80;9.53;;;;;;;10.20;78.39;102013.81;4904487;29;20711;-67
2024/01/30 16:36:59;;;;;;;15.23;8.63;;;;;;;10.23;78.13;102015.38;4901503;29;20725;-67
2024/01/30 16:39:28;;;;;;;12.83;8.37;;;;;;;10.22;78.29;102022.47;4902998;29;20243;-69
2024/01/30 16:42:00;;;;;;;16.00;8.93;;;;;;;10.24;78.28;102022.38;4904140;29;20686;-67
2024/01/30 16:44:28;;;;;;;13.67;9.07;;;;;;;10.23;78.43;102023.31;4904524;29;20226;-67
2024/01/30 16:46:56;;;;;;;16.53;8.90;;;;;;;10.21;78.58;102030.53;4902717;29;20728;-66
2024/01/30 16:49:25;;;;;;;12.03;8.43;;;;;;;10.15;79.18;102032.66;4900301;29;20302;-66
2024/01/30 16:51:55;;;;;;;12.97;8.13;;;;;;;10.07;79.98;102027.03;4902725;29;20230;-67
2024/01/30 16:54:25;;;;;;;17.60;9.07;;;;;;;10.02;80.35;102031.81;4904220;29;20679;-66
2024/01/30 16:56:53;;;;;;;17.03;8.67;;;;;;;9.98;80.56;102035.63;4902133;29;20353;-66
2024/01/30 16:59:22;;;;;;;16.67;9.93;;;;;;;10.03;80.37;102049.38;4901182;29;20245;-65
2024/01/30 17:01:50;;;;;;;16.73;9.50;;;;;;;10.03;80.70;102040.59;4903603;29;20218;-66
2024/01/30 17:04:21;;;;;;;14.93;9.57;;;;;;;10.07;80.40;102050.88;4901135;29;20212;-65
2024/01/30 17:06:51;;;;;;;17.33;9.80;;;;;;;10.08;79.83;102057.88;4904076;29;20737;-67
2024/01/30 17:09:20;;;;;;;15.43;9.43;;;;;;;10.09;79.99;102064.03;4905936;29;20222;-65
2024/01/30 17:11:48;;;;;;;16.77;9.87;;;;;;;10.09;79.85;102059.59;4906097;29;20226;-65
2024/01/30 17:14:17;;;;;;;20.13;10.30;;;;;;;10.10;79.42;102061.28;4909463;29;20931;-65
2024/01/30 17:16:48;;;;;;;22.83;10.00;;;;;;;10.09;79.66;102069.34;4909487;29;20241;-65
2024/01/30 17:19:23;;;;;;;16.07;9.80;;;;;;;10.13;79.43;102066.34;4909391;29;20215;-66
2024/01/30 17:21:51;;;;;;;18.47;10.47;;;;;;;10.09;79.63;102070.19;4903707;29;20206;-66
2024/01/30 17:24:19;;;;;;;17.93;10.63;;;;;;;10.08;79.67;102078.25;4903094;29;20266;-66
2024/01/30 17:26:49;;;;;;;17.00;10.00;;;;;;;10.08;79.82;102065.00;4902164;29;20206;-67
2024/01/30 17:29:18;;;;;;;15.83;9.80;;;;;;;10.11;79.29;102062.97;4902164;29;20988;-68
2024/01/30 17:31:48;;;;;;;21.80;11.27;;;;;;;10.08;79.37;102070.28;4903098;29;20218;-66
2024/01/30 17:34:16;;;;;;;16.07;10.53;;;;;;;10.06;79.40;102070.41;4901394;29;20876;-66
2024/01/30 17:36:45;;;;;;;21.57;10.40;;;;;;;10.07;79.29;102082.69;4904336;29;20253;-66
2024/01/30 17:39:13;;;;;;;14.93;9.63;;;;;;;10.04;79.47;102082.91;4903069;29;20219;-67
2024/01/30 17:41:41;;;;;;;14.63;9.80;;;;;;;9.99;79.62;102086.81;4901300;29;20217;-67
2024/01/30 17:44:11;;;;;;;18.13;9.90;;;;;;;9.98;79.77;102095.72;4901630;29;20238;-67
2024/01/30 17:46:41;;;;;;;17.37;10.60;;;;;;;10.00;79.67;102101.78;4903228;29;20344;-68
2024/01/30 17:49:11;;;;;;;17.47;9.87;;;;;;;9.98;79.58;102107.19;4903118;29;20270;-67
2024/01/30 17:51:41;;;;;;;17.60;9.77;;;;;;;9.97;79.73;102105.47;4903564;29;20222;-66
2024/01/30 17:54:09;;;;;;;18.13;10.23;;;;;;;9.97;79.80;102104.63;4900626;29;20219;-67
2024/01/30 17:56:37;;;;;;;19.30;10.67;;;;;;;9.94;79.91;102110.97;4901956;29;20222;-65
2024/01/30 17:59:06;;;;;;;14.47;9.77;;;;;;;9.97;79.82;102116.06;4901353;29;20596;-66
2024/01/30 18:01:35;;;;;;;16.60;10.17;;;;;;;10.02;79.42;102129.88;4901444;29;20249;-66
2024/01/30 18:04:04;;;;;;;17.40;9.97;;;;;;;10.01;79.42;102127.34;4900869;29;20225;-67
2024/01/30 18:06:33;;;;;;;17.63;10.17;;;;;;;9.95;79.79;102125.94;4899830;29;20222;-67
2024/01/30 18:09:01;;;;;;;18.60;10.37;;;;;;;9.92;79.82;102128.81;4899677;29;20728;-68
2024/01/30 18:11:30;;;;;;;18.53;11.10;;;;;;;9.93;79.78;102132.31;4902359;29;20215;-67
2024/01/30 18:13:59;;;;;;;15.83;10.50;;;;;;;9.90;79.95;102133.34;4902254;29;20229;-66
2024/01/30 18:16:27;;;;;;;17.70;10.53;;;;;;;9.91;80.03;102140.34;4901002;29;20215;-68
2024/01/30 18:18:56;;;;;;;17.40;11.73;;;;;;;9.86;80.39;102134.50;4900156;29;20271;-66
2024/01/30 18:21:25;;;;;;;18.03;10.50;;;;;;;9.86;80.38;102139.81;4902579;29;20218;-68
2024/01/30 18:23:55;;;;;;;20.50;10.57;;;;;;;9.88;80.39;102148.50;4901798;29;20223;-67
2024/01/30 18:26:25;;;;;;;25.37;10.67;;;;;;;9.94;79.96;102145.44;4901310;29;20214;-68
2024/01/30 18:28:56;;;;;;;16.90;11.00;;;;;;;10.00;79.47;102149.50;4903174;29;20209;-66
2024/01/30 18:31:24;;;;;;;16.53;10.83;;;;;;;10.04;79.20;102151.81;4905009;29;20210;-66
2024/01/30 18:33:54;;;;;;;16.50;11.23;;;;;;;10.02;79.18;102153.75;4905256;29;20251;-66
2024/01/30 18:36:25;;;;;;;22.43;11.43;;;;;;;9.97;79.36;102155.84;4905054;29;20854;-66
2024/01/30 18:38:57;;;;;;;19.20;11.40;;;;;;;9.91;80.04;102166.84;4906663;29;20266;-67
2024/01/30 18:41:25;;;;;;;20.00;11.67;;;;;;;9.89;80.18;102157.31;4905903;29;20213;-66
2024/01/30 18:43:53;;;;;;;19.37;12.07;;;;;;;9.84;80.22;102162.06;4903342;29;20210;-66
2024/01/30 18:46:23;;;;;;;21.53;11.70;;;;;;;9.83;80.43;102153.28;4903898;29;20210;-66
2024/01/30 18:48:51;;;;;;;20.03;12.83;;;;;;;9.75;80.93;102153.78;4904572;29;20210;-67
2024/01/30 18:51:19;;;;;;;19.43;12.83;;;;;;;9.76;80.90;102154.63;4903235;29;20807;-67
2024/01/30 18:53:48;;;;;;;18.87;12.40;;;;;;;9.72;81.05;102151.34;4905259;29;20705;-67
2024/01/30 18:56:19;;;;;;;16.63;11.53;;;;;;;9.74;81.56;102159.19;4905412;29;20210;-67
2024/01/30 18:58:47;;;;;;;18.93;11.50;;;;;;;9.79;81.27;102162.38;4905516;29;20317;-66
2024/01/30 19:01:17;;;;;;;22.43;12.60;;;;;;;9.81;80.89;102166.63;4905557;29;20214;-66
2024/01/30 19:03:49;;;;;;;18.30;11.77;;;;;;;9.81;80.88;102163.97;4901389;29;20331;-66
2024/01/30 19:06:17;;;;;;;20.37;12.10;;;;;;;9.81;80.92;102176.38;4903776;29;20342;-67